sensor_id;sensor_type;location;lat;lon;timestamp;pressure;altitude;pressure_sealevel;temperature;humidity
28626;BME280;18905;42.668;23.364;2022-11-20T00:02:24;94373.59;;;15.36;100.00
28626;BME280;18905;42.668;23.364;2022-11-20T00:04:49;94402.56;;;15.47;100.00
28626;BME280;18905;42.668;23.364;2022-11-20T00:07:15;94389.84;;;15.32;100.00
28626;BME280;18905;42.668;23.364;2022-11-20T00:09:40;94389.16;;;15.35;100.00
28626;BME280;18905;42.668;23.364;2022-11-20T00:12:05;94381.03;;;15.16;100.00
28626;BME280;18905;42.668;23.364;2022-11-20T00:14:31;94411.56;;;15.29;100.00
28626;BME280;18905;42.668;23.364;2022-11-20T00:16:56;94383.75;;;15.16;100.00
28626;BME280;18905;42.668;23.364;2022-11-20T00:19:22;94397.16;;;15.28;100.00
28626;BME280;18905;42.668;23.364;2022-11-20T00:21:47;94380.00;;;15.02;100.00
28626;BME280;18905;42.668;23.364;2022-11-20T00:24:13;94403.03;;;15.30;100.00
28626;BME280;18905;42.668;23.364;2022-11-20T00:26:38;94357.28;;;15.13;100.00
28626;BME280;18905;42.668;23.364;2022-11-20T00:29:03;94406.97;;;15.33;100.00
28626;BME280;18905;42.668;23.364;2022-11-20T00:31:30;94395.06;;;15.18;100.00
28626;BME280;18905;42.668;23.364;2022-11-20T00:33:55;94354.19;;;14.92;100.00
28626;BME280;18905;42.668;23.364;2022-11-20T00:36:23;94359.09;;;15.06;100.00
28626;BME280;18905;42.668;23.364;2022-11-20T00:38:53;94388.91;;;15.21;100.00
28626;BME280;18905;42.668;23.364;2022-11-20T00:41:19;94381.41;;;15.15;100.00
28626;BME280;18905;42.668;23.364;2022-11-20T00:43:45;94357.47;;;15.01;100.00
28626;BME280;18905;42.668;23.364;2022-11-20T00:46:15;94367.56;;;15.23;100.00
28626;BME280;18905;42.668;23.364;2022-11-20T00:48:42;94392.44;;;15.25;100.00
28626;BME280;18905;42.668;23.364;2022-11-20T00:51:11;94389.41;;;15.08;100.00
28626;BME280;18905;42.668;23.364;2022-11-20T00:53:38;94395.53;;;15.24;100.00
28626;BME280;18905;42.668;23.364;2022-11-20T00:56:09;94388.00;;;15.36;100.00
28626;BME280;18905;42.668;23.364;2022-11-20T00:58:40;94365.22;;;15.44;100.00
28626;BME280;18905;42.668;23.364;2022-11-20T01:01:13;94366.84;;;16.01;100.00
28626;BME280;18905;42.668;23.364;2022-11-20T01:03:41;94360.00;;;16.43;100.00
28626;BME280;18905;42.668;23.364;2022-11-20T01:06:10;94409.22;;;16.57;100.00
28626;BME280;18905;42.668;23.364;2022-11-20T01:08:36;94367.56;;;16.57;100.00
28626;BME280;18905;42.668;23.364;2022-11-20T01:11:07;94351.53;;;16.85;100.00
28626;BME280;18905;42.668;23.364;2022-11-20T01:13:33;94356.53;;;17.19;100.00
28626;BME280;18905;42.668;23.364;2022-11-20T01:16:13;94368.97;;;17.13;100.00
28626;BME280;18905;42.668;23.364;2022-11-20T01:18:41;94328.28;;;16.98;100.00
28626;BME280;18905;42.668;23.364;2022-11-20T01:21:10;94322.28;;;16.85;100.00
28626;BME280;18905;42.668;23.364;2022-11-20T01:23:38;94313.63;;;17.16;100.00
28626;BME280;18905;42.668;23.364;2022-11-20T01:26:06;94339.59;;;17.43;100.00
28626;BME280;18905;42.668;23.364;2022-11-20T01:28:33;94318.56;;;17.44;100.00
28626;BME280;18905;42.668;23.364;2022-11-20T01:30:59;94335.81;;;17.55;100.00
28626;BME280;18905;42.668;23.364;2022-11-20T01:33:25;94342.53;;;17.24;100.00
28626;BME280;18905;42.668;23.364;2022-11-20T01:35:51;94346.13;;;17.35;100.00
28626;BME280;18905;42.668;23.364;2022-11-20T01:38:17;94323.09;;;17.29;100.00
28626;BME280;18905;42.668;23.364;2022-11-20T01:40:42;94331.63;;;17.21;100.00
28626;BME280;18905;42.668;23.364;2022-11-20T01:43:18;94327.38;;;17.27;100.00
28626;BME280;18905;42.668;23.364;2022-11-20T01:46:06;94336.88;;;17.03;100.00
28626;BME280;18905;42.668;23.364;2022-11-20T01:51:19;94312.06;;;16.75;100.00
28626;BME280;18905;42.668;23.364;2022-11-20T01:53:46;94315.47;;;16.65;100.00
28626;BME280;18905;42.668;23.364;2022-11-20T01:56:13;94334.31;;;16.77;100.00
28626;BME280;18905;42.668;23.364;2022-11-20T01:58:43;94308.47;;;16.31;100.00
28626;BME280;18905;42.668;23.364;2022-11-20T02:01:12;94318.19;;;16.62;100.00
28626;BME280;18905;42.668;23.364;2022-11-20T02:03:38;94308.38;;;16.57;100.00
28626;BME280;18905;42.668;23.364;2022-11-20T02:06:32;94325.72;;;16.75;100.00
28626;BME280;18905;42.668;23.364;2022-11-20T02:09:00;94321.50;;;16.81;100.00
28626;BME280;18905;42.668;23.364;2022-11-20T02:11:25;94327.25;;;16.73;100.00
28626;BME280;18905;42.668;23.364;2022-11-20T02:13:51;94340.63;;;16.85;100.00
28626;BME280;18905;42.668;23.364;2022-11-20T02:16:35;94332.56;;;16.95;100.00
28626;BME280;18905;42.668;23.364;2022-11-20T02:19:04;94312.50;;;16.77;100.00
28626;BME280;18905;42.668;23.364;2022-11-20T02:24:34;94338.38;;;16.94;100.00
28626;BME280;18905;42.668;23.364;2022-11-20T02:27:10;94338.59;;;16.78;100.00
28626;BME280;18905;42.668;23.364;2022-11-20T02:29:43;94348.84;;;16.92;100.00
28626;BME280;18905;42.668;23.364;2022-11-20T02:34:48;94347.25;;;16.87;100.00
28626;BME280;18905;42.668;23.364;2022-11-20T02:37:13;94323.13;;;16.89;100.00
28626;BME280;18905;42.668;23.364;2022-11-20T02:39:39;94331.50;;;17.10;100.00
28626;BME280;18905;42.668;23.364;2022-11-20T02:42:05;94349.63;;;17.32;100.00
28626;BME280;18905;42.668;23.364;2022-11-20T02:44:30;94369.25;;;17.41;100.00
28626;BME280;18905;42.668;23.364;2022-11-20T02:46:59;94351.44;;;17.58;100.00
28626;BME280;18905;42.668;23.364;2022-11-20T02:49:25;94360.94;;;17.78;98.80
28626;BME280;18905;42.668;23.364;2022-11-20T02:51:50;94364.91;;;17.87;97.12
28626;BME280;18905;42.668;23.364;2022-11-20T02:54:16;94366.44;;;17.85;96.57
28626;BME280;18905;42.668;23.364;2022-11-20T02:56:42;94374.00;;;18.09;94.37
28626;BME280;18905;42.668;23.364;2022-11-20T02:59:09;94358.81;;;18.15;90.78
28626;BME280;18905;42.668;23.364;2022-11-20T03:01:35;94382.81;;;18.39;92.11
28626;BME280;18905;42.668;23.364;2022-11-20T03:04:00;94347.22;;;18.35;92.19
28626;BME280;18905;42.668;23.364;2022-11-20T03:06:26;94378.59;;;18.55;90.88
28626;BME280;18905;42.668;23.364;2022-11-20T03:08:51;94385.59;;;18.53;90.43
28626;BME280;18905;42.668;23.364;2022-11-20T03:11:17;94327.63;;;18.23;91.91
28626;BME280;18905;42.668;23.364;2022-11-20T03:13:42;94364.44;;;18.43;91.85
28626;BME280;18905;42.668;23.364;2022-11-20T03:16:11;94365.28;;;18.50;90.58
28626;BME280;18905;42.668;23.364;2022-11-20T03:18:37;94385.25;;;18.61;90.18
28626;BME280;18905;42.668;23.364;2022-11-20T03:21:03;94383.31;;;18.72;87.77
28626;BME280;18905;42.668;23.364;2022-11-20T03:23:30;94411.88;;;18.85;88.26
28626;BME280;18905;42.668;23.364;2022-11-20T03:26:17;94409.53;;;18.80;86.66
28626;BME280;18905;42.668;23.364;2022-11-20T03:28:51;94407.56;;;18.77;86.96
28626;BME280;18905;42.668;23.364;2022-11-20T03:31:20;94397.78;;;18.76;88.68
28626;BME280;18905;42.668;23.364;2022-11-20T03:33:46;94403.63;;;18.71;87.87
28626;BME280;18905;42.668;23.364;2022-11-20T03:36:13;94407.53;;;18.74;89.26
28626;BME280;18905;42.668;23.364;2022-11-20T03:38:40;94410.28;;;18.77;87.90
28626;BME280;18905;42.668;23.364;2022-11-20T03:41:08;94416.16;;;18.76;88.11
28626;BME280;18905;42.668;23.364;2022-11-20T03:43:34;94412.25;;;18.80;87.14
28626;BME280;18905;42.668;23.364;2022-11-20T03:46:00;94387.91;;;18.51;87.85
28626;BME280;18905;42.668;23.364;2022-11-20T03:48:26;94411.34;;;18.52;89.00
28626;BME280;18905;42.668;23.364;2022-11-20T03:50:52;94422.34;;;18.62;89.19
28626;BME280;18905;42.668;23.364;2022-11-20T03:53:18;94420.03;;;18.68;88.17
28626;BME280;18905;42.668;23.364;2022-11-20T03:55:43;94401.66;;;18.65;88.48
28626;BME280;18905;42.668;23.364;2022-11-20T03:58:09;94408.28;;;18.67;88.36
28626;BME280;18905;42.668;23.364;2022-11-20T04:00:35;94414.56;;;18.64;87.54
28626;BME280;18905;42.668;23.364;2022-11-20T04:03:01;94410.66;;;18.72;87.07
28626;BME280;18905;42.668;23.364;2022-11-20T04:05:27;94409.09;;;18.71;89.49
28626;BME280;18905;42.668;23.364;2022-11-20T04:07:52;94413.03;;;18.77;86.22
28626;BME280;18905;42.668;23.364;2022-11-20T04:10:18;94402.88;;;18.74;86.41
28626;BME280;18905;42.668;23.364;2022-11-20T04:12:43;94419.22;;;18.67;85.44
28626;BME280;18905;42.668;23.364;2022-11-20T04:15:09;94413.00;;;18.70;86.56
28626;BME280;18905;42.668;23.364;2022-11-20T04:17:34;94414.94;;;18.70;86.13
28626;BME280;18905;42.668;23.364;2022-11-20T04:20:00;94416.94;;;18.76;83.99
28626;BME280;18905;42.668;23.364;2022-11-20T04:22:26;94432.53;;;18.72;86.04
28626;BME280;18905;42.668;23.364;2022-11-20T04:24:51;94403.56;;;18.57;85.52
28626;BME280;18905;42.668;23.364;2022-11-20T04:27:16;94415.75;;;18.74;85.28
28626;BME280;18905;42.668;23.364;2022-11-20T04:29:42;94423.97;;;18.77;85.43
28626;BME280;18905;42.668;23.364;2022-11-20T04:32:07;94418.09;;;18.68;86.33
28626;BME280;18905;42.668;23.364;2022-11-20T04:34:33;94429.03;;;18.75;85.53
28626;BME280;18905;42.668;23.364;2022-11-20T04:36:58;94416.81;;;18.52;88.86
28626;BME280;18905;42.668;23.364;2022-11-20T04:39:24;94398.84;;;18.51;87.38
28626;BME280;18905;42.668;23.364;2022-11-20T04:41:49;94416.84;;;18.55;86.93
28626;BME280;18905;42.668;23.364;2022-11-20T04:44:34;94401.97;;;18.49;88.17
28626;BME280;18905;42.668;23.364;2022-11-20T04:47:00;94420.03;;;18.64;88.15
28626;BME280;18905;42.668;23.364;2022-11-20T04:49:25;94405.94;;;18.59;88.73
28626;BME280;18905;42.668;23.364;2022-11-20T04:51:53;94412.09;;;18.45;91.14
28626;BME280;18905;42.668;23.364;2022-11-20T04:54:18;94409.03;;;18.57;90.25
28626;BME280;18905;42.668;23.364;2022-11-20T04:56:47;94412.91;;;18.49;92.24
28626;BME280;18905;42.668;23.364;2022-11-20T04:59:13;94412.94;;;18.60;90.40
28626;BME280;18905;42.668;23.364;2022-11-20T05:01:38;94395.31;;;18.47;91.46
28626;BME280;18905;42.668;23.364;2022-11-20T05:04:04;94389.47;;;18.45;91.45
28626;BME280;18905;42.668;23.364;2022-11-20T05:06:29;94388.72;;;18.51;89.61
28626;BME280;18905;42.668;23.364;2022-11-20T05:08:54;94386.34;;;18.46;91.56
28626;BME280;18905;42.668;23.364;2022-11-20T05:11:20;94404.25;;;18.40;93.33
28626;BME280;18905;42.668;23.364;2022-11-20T05:13:47;94394.88;;;18.34;92.27
28626;BME280;18905;42.668;23.364;2022-11-20T05:16:15;94374.94;;;18.34;92.32
28626;BME280;18905;42.668;23.364;2022-11-20T05:18:41;94373.72;;;18.31;93.91
28626;BME280;18905;42.668;23.364;2022-11-20T05:21:08;94367.88;;;18.26;93.46
28626;BME280;18905;42.668;23.364;2022-11-20T05:23:34;94364.28;;;18.15;95.99
28626;BME280;18905;42.668;23.364;2022-11-20T05:26:01;94376.06;;;18.29;99.95
28626;BME280;18905;42.668;23.364;2022-11-20T05:28:27;94336.06;;;17.97;100.00
28626;BME280;18905;42.668;23.364;2022-11-20T05:30:53;94357.91;;;17.97;100.00
28626;BME280;18905;42.668;23.364;2022-11-20T05:33:19;94358.66;;;17.90;100.00
28626;BME280;18905;42.668;23.364;2022-11-20T05:35:45;94363.56;;;17.67;100.00
28626;BME280;18905;42.668;23.364;2022-11-20T05:38:10;94367.50;;;17.70;100.00
28626;BME280;18905;42.668;23.364;2022-11-20T05:40:36;94363.06;;;17.51;100.00
28626;BME280;18905;42.668;23.364;2022-11-20T05:43:01;94369.25;;;17.41;100.00
28626;BME280;18905;42.668;23.364;2022-11-20T05:45:27;94370.69;;;17.35;100.00
28626;BME280;18905;42.668;23.364;2022-11-20T05:47:53;94372.34;;;17.43;100.00
28626;BME280;18905;42.668;23.364;2022-11-20T05:50:18;94366.41;;;17.34;100.00
28626;BME280;18905;42.668;23.364;2022-11-20T05:52:43;94367.19;;;17.35;100.00
28626;BME280;18905;42.668;23.364;2022-11-20T05:55:09;94372.28;;;17.36;100.00
28626;BME280;18905;42.668;23.364;2022-11-20T05:57:35;94348.28;;;17.12;100.00
28626;BME280;18905;42.668;23.364;2022-11-20T06:00:01;94366.22;;;17.13;100.00
28626;BME280;18905;42.668;23.364;2022-11-20T06:02:26;94369.81;;;17.24;100.00
28626;BME280;18905;42.668;23.364;2022-11-20T06:04:51;94347.72;;;16.93;100.00
28626;BME280;18905;42.668;23.364;2022-11-20T06:07:17;94359.28;;;17.23;100.00
28626;BME280;18905;42.668;23.364;2022-11-20T06:09:42;94358.44;;;17.15;100.00
28626;BME280;18905;42.668;23.364;2022-11-20T06:12:08;94361.50;;;17.07;100.00
28626;BME280;18905;42.668;23.364;2022-11-20T06:14:33;94361.16;;;17.15;100.00
28626;BME280;18905;42.668;23.364;2022-11-20T06:16:59;94386.81;;;17.07;100.00
28626;BME280;18905;42.668;23.364;2022-11-20T06:19:24;94387.09;;;16.95;100.00
28626;BME280;18905;42.668;23.364;2022-11-20T06:21:49;94379.63;;;16.89;100.00
28626;BME280;18905;42.668;23.364;2022-11-20T06:24:15;94381.75;;;16.73;100.00
28626;BME280;18905;42.668;23.364;2022-11-20T06:26:41;94377.22;;;16.84;100.00
28626;BME280;18905;42.668;23.364;2022-11-20T06:29:06;94395.47;;;17.16;100.00
28626;BME280;18905;42.668;23.364;2022-11-20T06:31:32;94401.75;;;17.20;100.00
28626;BME280;18905;42.668;23.364;2022-11-20T06:34:05;94402.22;;;17.29;100.00
28626;BME280;18905;42.668;23.364;2022-11-20T06:36:32;94398.13;;;17.49;100.00
28626;BME280;18905;42.668;23.364;2022-11-20T06:38:58;94364.44;;;17.31;100.00
28626;BME280;18905;42.668;23.364;2022-11-20T06:41:24;94373.03;;;17.33;100.00
28626;BME280;18905;42.668;23.364;2022-11-20T06:43:50;94379.22;;;17.30;100.00
28626;BME280;18905;42.668;23.364;2022-11-20T06:46:16;94395.75;;;17.44;100.00
28626;BME280;18905;42.668;23.364;2022-11-20T06:48:42;94403.06;;;17.80;100.00
28626;BME280;18905;42.668;23.364;2022-11-20T06:51:08;94399.56;;;18.37;100.00
28626;BME280;18905;42.668;23.364;2022-11-20T06:53:34;94427.19;;;19.04;100.00
28626;BME280;18905;42.668;23.364;2022-11-20T06:56:00;94398.41;;;19.83;100.00
28626;BME280;18905;42.668;23.364;2022-11-20T06:58:30;94412.72;;;19.03;100.00
28626;BME280;18905;42.668;23.364;2022-11-20T07:01:07;94406.31;;;18.57;100.00
28626;BME280;18905;42.668;23.364;2022-11-20T07:03:34;94415.50;;;18.28;100.00
28626;BME280;18905;42.668;23.364;2022-11-20T07:06:00;94410.22;;;17.95;100.00
28626;BME280;18905;42.668;23.364;2022-11-20T07:08:26;94406.88;;;17.65;100.00
28626;BME280;18905;42.668;23.364;2022-11-20T07:10:52;94434.75;;;17.88;100.00
28626;BME280;18905;42.668;23.364;2022-11-20T07:13:17;94426.47;;;17.78;100.00
28626;BME280;18905;42.668;23.364;2022-11-20T07:15:43;94416.94;;;17.58;100.00
28626;BME280;18905;42.668;23.364;2022-11-20T07:18:08;94388.44;;;17.52;100.00
28626;BME280;18905;42.668;23.364;2022-11-20T07:20:34;94421.56;;;17.50;100.00
28626;BME280;18905;42.668;23.364;2022-11-20T07:22:59;94440.72;;;17.57;100.00
28626;BME280;18905;42.668;23.364;2022-11-20T07:25:26;94443.53;;;17.64;100.00
28626;BME280;18905;42.668;23.364;2022-11-20T07:27:52;94429.88;;;17.64;100.00
28626;BME280;18905;42.668;23.364;2022-11-20T07:30:18;94435.63;;;17.56;100.00
28626;BME280;18905;42.668;23.364;2022-11-20T07:32:50;94413.03;;;17.59;100.00
28626;BME280;18905;42.668;23.364;2022-11-20T07:35:16;94427.50;;;17.59;100.00
28626;BME280;18905;42.668;23.364;2022-11-20T07:37:41;94422.41;;;17.58;100.00
28626;BME280;18905;42.668;23.364;2022-11-20T07:40:07;94430.22;;;17.59;100.00
28626;BME280;18905;42.668;23.364;2022-11-20T07:42:32;94428.59;;;17.51;100.00
28626;BME280;18905;42.668;23.364;2022-11-20T07:44:58;94427.97;;;17.68;100.00
28626;BME280;18905;42.668;23.364;2022-11-20T07:47:23;94436.97;;;17.72;100.00
28626;BME280;18905;42.668;23.364;2022-11-20T07:49:48;94433.31;;;17.58;100.00
28626;BME280;18905;42.668;23.364;2022-11-20T07:52:14;94422.66;;;17.42;100.00
28626;BME280;18905;42.668;23.364;2022-11-20T07:54:39;94436.78;;;17.51;100.00
28626;BME280;18905;42.668;23.364;2022-11-20T07:57:04;94434.13;;;17.62;100.00
28626;BME280;18905;42.668;23.364;2022-11-20T07:59:30;94442.59;;;17.50;100.00
28626;BME280;18905;42.668;23.364;2022-11-20T08:01:55;94415.53;;;17.34;100.00
28626;BME280;18905;42.668;23.364;2022-11-20T08:04:21;94406.94;;;17.32;100.00
28626;BME280;18905;42.668;23.364;2022-11-20T08:06:46;94429.66;;;17.40;100.00
28626;BME280;18905;42.668;23.364;2022-11-20T08:09:12;94445.00;;;17.58;100.00
28626;BME280;18905;42.668;23.364;2022-11-20T08:11:37;94432.16;;;17.62;100.00
28626;BME280;18905;42.668;23.364;2022-11-20T08:14:29;94406.00;;;17.54;100.00
28626;BME280;18905;42.668;23.364;2022-11-20T08:16:54;94416.78;;;17.87;100.00
28626;BME280;18905;42.668;23.364;2022-11-20T08:19:19;94399.13;;;17.71;100.00
28626;BME280;18905;42.668;23.364;2022-11-20T08:21:45;94421.78;;;17.78;100.00
28626;BME280;18905;42.668;23.364;2022-11-20T08:24:11;94420.59;;;17.76;100.00
28626;BME280;18905;42.668;23.364;2022-11-20T08:26:38;94426.09;;;17.79;100.00
28626;BME280;18905;42.668;23.364;2022-11-20T08:29:04;94424.09;;;17.76;100.00
28626;BME280;18905;42.668;23.364;2022-11-20T08:31:30;94431.28;;;17.98;100.00
28626;BME280;18905;42.668;23.364;2022-11-20T08:33:55;94445.06;;;18.12;100.00
28626;BME280;18905;42.668;23.364;2022-11-20T08:36:22;94440.31;;;18.06;100.00
28626;BME280;18905;42.668;23.364;2022-11-20T08:38:53;94431.38;;;18.12;100.00
28626;BME280;18905;42.668;23.364;2022-11-20T08:41:19;94433.75;;;18.14;100.00
28626;BME280;18905;42.668;23.364;2022-11-20T08:44:03;94440.81;;;18.18;100.00
28626;BME280;18905;42.668;23.364;2022-11-20T08:46:36;94442.00;;;18.21;100.00
28626;BME280;18905;42.668;23.364;2022-11-20T08:49:03;94439.66;;;18.23;100.00
28626;BME280;18905;42.668;23.364;2022-11-20T08:51:30;94468.91;;;18.19;100.00
28626;BME280;18905;42.668;23.364;2022-11-20T08:53:55;94472.47;;;17.72;100.00
28626;BME280;18905;42.668;23.364;2022-11-20T08:56:20;94485.91;;;17.95;100.00
28626;BME280;18905;42.668;23.364;2022-11-20T08:58:46;94485.56;;;18.03;100.00
28626;BME280;18905;42.668;23.364;2022-11-20T09:01:11;94455.41;;;17.89;100.00
28626;BME280;18905;42.668;23.364;2022-11-20T09:03:37;94472.78;;;18.14;100.00
28626;BME280;18905;42.668;23.364;2022-11-20T09:06:05;94482.13;;;18.10;100.00
28626;BME280;18905;42.668;23.364;2022-11-20T09:08:31;94482.88;;;18.07;100.00
28626;BME280;18905;42.668;23.364;2022-11-20T09:10:57;94481.75;;;18.11;100.00
28626;BME280;18905;42.668;23.364;2022-11-20T09:13:24;94480.19;;;18.14;100.00
28626;BME280;18905;42.668;23.364;2022-11-20T09:15:58;94489.25;;;17.74;100.00
28626;BME280;18905;42.668;23.364;2022-11-20T09:18:25;94492.38;;;17.76;100.00
28626;BME280;18905;42.668;23.364;2022-11-20T09:20:51;94480.97;;;17.67;100.00
28626;BME280;18905;42.668;23.364;2022-11-20T09:23:16;94479.28;;;17.52;100.00
28626;BME280;18905;42.668;23.364;2022-11-20T09:25:42;94491.16;;;17.70;100.00
28626;BME280;18905;42.668;23.364;2022-11-20T09:28:08;94484.41;;;17.24;100.00
28626;BME280;18905;42.668;23.364;2022-11-20T09:30:33;94464.81;;;17.15;100.00
28626;BME280;18905;42.668;23.364;2022-11-20T09:32:59;94473.59;;;16.98;100.00
28626;BME280;18905;42.668;23.364;2022-11-20T09:35:24;94478.88;;;16.84;100.00
28626;BME280;18905;42.668;23.364;2022-11-20T09:37:49;94467.44;;;16.72;100.00
28626;BME280;18905;42.668;23.364;2022-11-20T09:40:27;94458.53;;;16.45;100.00
28626;BME280;18905;42.668;23.364;2022-11-20T09:43:00;94463.06;;;16.38;100.00
28626;BME280;18905;42.668;23.364;2022-11-20T09:48:32;94444.56;;;16.50;100.00
28626;BME280;18905;42.668;23.364;2022-11-20T09:51:26;94433.34;;;16.55;100.00
28626;BME280;18905;42.668;23.364;2022-11-20T09:54:13;94431.53;;;16.66;100.00
28626;BME280;18905;42.668;23.364;2022-11-20T09:56:43;94433.25;;;16.48;100.00
28626;BME280;18905;42.668;23.364;2022-11-20T10:01:54;94433.94;;;16.16;100.00
28626;BME280;18905;42.668;23.364;2022-11-20T10:04:21;94430.38;;;16.38;100.00
28626;BME280;18905;42.668;23.364;2022-11-20T10:09:37;94423.66;;;16.32;100.00
28626;BME280;18905;42.668;23.364;2022-11-20T10:12:21;94417.81;;;16.30;100.00
28626;BME280;18905;42.668;23.364;2022-11-20T10:18:18;94419.47;;;16.38;100.00
28626;BME280;18905;42.668;23.364;2022-11-20T10:26:13;94387.38;;;16.24;100.00
28626;BME280;18905;42.668;23.364;2022-11-20T10:29:09;94399.22;;;16.09;100.00
28626;BME280;18905;42.668;23.364;2022-11-20T10:31:40;94410.72;;;16.25;100.00
28626;BME280;18905;42.668;23.364;2022-11-20T10:34:28;94407.47;;;16.16;100.00
28626;BME280;18905;42.668;23.364;2022-11-20T10:36:59;94417.88;;;16.37;100.00
28626;BME280;18905;42.668;23.364;2022-11-20T10:39:35;94410.25;;;16.46;100.00
28626;BME280;18905;42.668;23.364;2022-11-20T10:42:02;94407.66;;;16.30;100.00
28626;BME280;18905;42.668;23.364;2022-11-20T10:44:29;94403.81;;;16.31;100.00
28626;BME280;18905;42.668;23.364;2022-11-20T10:47:18;94411.00;;;16.17;100.00
28626;BME280;18905;42.668;23.364;2022-11-20T10:49:47;94438.13;;;17.31;100.00
28626;BME280;18905;42.668;23.364;2022-11-20T10:55:30;94413.81;;;18.78;100.00
28626;BME280;18905;42.668;23.364;2022-11-20T10:58:14;94437.47;;;19.31;100.00
28626;BME280;18905;42.668;23.364;2022-11-20T11:00:39;94438.31;;;19.77;100.00
28626;BME280;18905;42.668;23.364;2022-11-20T11:08:28;94450.72;;;20.98;100.00
28626;BME280;18905;42.668;23.364;2022-11-20T11:11:01;94463.75;;;21.55;100.00
28626;BME280;18905;42.668;23.364;2022-11-20T11:13:29;94464.41;;;21.01;100.00
28626;BME280;18905;42.668;23.364;2022-11-20T11:15:58;94482.78;;;21.15;100.00
28626;BME280;18905;42.668;23.364;2022-11-20T11:18:34;94496.34;;;18.97;100.00
28626;BME280;18905;42.668;23.364;2022-11-20T11:21:02;94512.97;;;19.39;100.00
28626;BME280;18905;42.668;23.364;2022-11-20T11:23:39;94507.41;;;17.60;100.00
28626;BME280;18905;42.668;23.364;2022-11-20T11:26:07;94490.47;;;18.95;100.00
28626;BME280;18905;42.668;23.364;2022-11-20T11:28:59;94489.63;;;20.22;100.00
28626;BME280;18905;42.668;23.364;2022-11-20T11:31:26;94461.03;;;20.09;100.00
28626;BME280;18905;42.668;23.364;2022-11-20T11:34:03;94468.78;;;20.74;100.00
28626;BME280;18905;42.668;23.364;2022-11-20T11:36:29;94474.97;;;21.10;100.00
28626;BME280;18905;42.668;23.364;2022-11-20T11:38:55;94488.47;;;21.52;100.00
28626;BME280;18905;42.668;23.364;2022-11-20T11:43:25;94474.22;;;17.98;100.00
28626;BME280;18905;42.668;23.364;2022-11-20T11:47:00;94471.28;;;16.15;100.00
28626;BME280;18905;42.668;23.364;2022-11-20T11:49:27;94433.84;;;16.09;100.00
28626;BME280;18905;42.668;23.364;2022-11-20T11:54:50;94466.91;;;15.17;100.00
28626;BME280;18905;42.668;23.364;2022-11-20T12:00:08;94471.41;;;17.87;100.00
28626;BME280;18905;42.668;23.364;2022-11-20T12:02:46;94464.03;;;17.48;100.00
28626;BME280;18905;42.668;23.364;2022-11-20T12:05:24;94445.09;;;16.33;100.00
28626;BME280;18905;42.668;23.364;2022-11-20T12:10:44;94442.75;;;15.57;100.00
28626;BME280;18905;42.668;23.364;2022-11-20T12:13:26;94446.31;;;15.61;100.00
28626;BME280;18905;42.668;23.364;2022-11-20T12:15:53;94454.91;;;14.99;100.00
28626;BME280;18905;42.668;23.364;2022-11-20T12:18:21;94427.28;;;14.97;100.00
28626;BME280;18905;42.668;23.364;2022-11-20T12:24:05;94454.72;;;14.51;100.00
28626;BME280;18905;42.668;23.364;2022-11-20T12:29:10;94452.47;;;14.37;100.00
28626;BME280;18905;42.668;23.364;2022-11-20T12:32:13;94456.94;;;14.45;100.00
28626;BME280;18905;42.668;23.364;2022-11-20T12:42:50;94407.16;;;14.22;100.00
28626;BME280;18905;42.668;23.364;2022-11-20T12:48:47;94367.72;;;14.66;100.00
28626;BME280;18905;42.668;23.364;2022-11-20T12:51:39;94380.66;;;14.54;100.00
28626;BME280;18905;42.668;23.364;2022-11-20T12:57:24;94402.84;;;14.02;100.00
28626;BME280;18905;42.668;23.364;2022-11-20T13:05:06;94383.41;;;14.00;100.00
28626;BME280;18905;42.668;23.364;2022-11-20T13:07:38;94371.13;;;13.72;100.00
28626;BME280;18905;42.668;23.364;2022-11-20T13:10:16;94348.69;;;13.56;100.00
28626;BME280;18905;42.668;23.364;2022-11-20T13:12:51;94360.38;;;13.75;100.00
28626;BME280;18905;42.668;23.364;2022-11-20T13:15:42;94342.31;;;13.83;100.00
28626;BME280;18905;42.668;23.364;2022-11-20T13:18:13;94370.50;;;13.78;100.00
28626;BME280;18905;42.668;23.364;2022-11-20T13:20:44;94407.56;;;13.55;100.00
28626;BME280;18905;42.668;23.364;2022-11-20T13:23:11;94427.63;;;13.35;100.00
28626;BME280;18905;42.668;23.364;2022-11-20T13:25:39;94413.25;;;13.50;100.00
28626;BME280;18905;42.668;23.364;2022-11-20T13:28:28;94337.84;;;13.56;100.00
28626;BME280;18905;42.668;23.364;2022-11-20T13:30:56;94362.88;;;13.49;100.00
28626;BME280;18905;42.668;23.364;2022-11-20T13:36:06;94478.78;;;14.33;100.00
28626;BME280;18905;42.668;23.364;2022-11-20T13:38:48;94416.03;;;13.69;100.00
28626;BME280;18905;42.668;23.364;2022-11-20T13:46:50;94437.44;;;13.90;100.00
28626;BME280;18905;42.668;23.364;2022-11-20T13:49:38;94405.78;;;13.63;100.00
28626;BME280;18905;42.668;23.364;2022-11-20T13:55:07;94440.28;;;13.78;100.00
28626;BME280;18905;42.668;23.364;2022-11-20T14:00:22;94437.56;;;13.62;100.00
28626;BME280;18905;42.668;23.364;2022-11-20T14:05:58;94429.50;;;13.81;100.00
28626;BME280;18905;42.668;23.364;2022-11-20T14:08:41;94439.53;;;13.96;100.00
28626;BME280;18905;42.668;23.364;2022-11-20T14:11:28;94437.13;;;14.10;100.00
28626;BME280;18905;42.668;23.364;2022-11-20T14:13:55;94423.25;;;14.15;100.00
28626;BME280;18905;42.668;23.364;2022-11-20T14:16:22;94408.09;;;13.95;100.00
28626;BME280;18905;42.668;23.364;2022-11-20T14:18:48;94424.94;;;14.20;100.00
28626;BME280;18905;42.668;23.364;2022-11-20T14:21:27;94384.78;;;14.10;100.00